Time;durP1;ratioP1;P1;durP2;ratioP2;P2;SDS_P1;SDS_P2;PMS_P1;PMS_P2;Temp;Humidity;BMP_temperature;BMP_pressure;BME280_temperature;BME280_humidity;BME280_pressure;Samples;Min_cycle;Max_cycle;Signal;HPM_P1;HPM_P2
2022/06/01 00:01:51;;;;;;;12.90;9.15;;;11.00;99.90;;;;;;5033831;28;20048;-64
2022/06/01 00:04:17;;;;;;;11.57;8.40;;;11.20;99.90;;;;;;5037015;28;20076;-64
2022/06/01 00:06:43;;;;;;;15.48;10.15;;;11.10;99.90;;;;;;5037593;28;20051;-64
2022/06/01 00:09:09;;;;;;;10.50;7.70;;;11.10;99.90;;;;;;5055666;28;20029;-64
2022/06/01 00:11:35;;;;;;;11.50;8.75;;;;;;;;;;5054482;28;20048;-64
2022/06/01 00:14:01;;;;;;;13.48;8.52;;;11.20;99.90;;;;;;5018291;28;20496;-64
2022/06/01 00:16:26;;;;;;;11.38;8.48;;;11.20;99.90;;;;;;5017775;28;20048;-63
2022/06/01 00:18:52;;;;;;;12.43;8.68;;;;;;;;;;5006903;28;20068;-64
2022/06/01 00:21:18;;;;;;;11.80;8.50;;;11.10;99.90;;;;;;5037483;28;20068;-63
2022/06/01 00:23:44;;;;;;;10.18;7.85;;;;;;;;;;5018285;28;20041;-63
2022/06/01 00:26:09;;;;;;;9.98;8.32;;;11.10;99.90;;;;;;5017694;28;20491;-63
2022/06/01 00:28:35;;;;;;;10.35;8.45;;;11.30;99.90;;;;;;5035620;28;20042;-64
2022/06/01 00:31:03;;;;;;;11.07;8.35;;;;;;;;;;5025062;28;20044;-64
2022/06/01 00:33:29;;;;;;;10.05;7.90;;;11.20;99.90;;;;;;5055607;28;20178;-64
2022/06/01 00:35:56;;;;;;;9.60;7.72;;;;;;;;;;5054927;28;20033;-64
2022/06/01 00:38:22;;;;;;;10.35;7.95;;;11.20;99.90;;;;;;5020659;28;20040;-63
2022/06/01 00:40:48;;;;;;;11.18;8.27;;;11.20;99.90;;;;;;5019693;28;20068;-64
2022/06/01 00:43:22;;;;;;;9.50;8.13;;;11.10;99.90;;;;;;5017796;28;20475;-63
2022/06/01 00:45:48;;;;;;;10.63;8.73;;;;;;;;;;5051732;28;20037;-64
2022/06/01 00:48:14;;;;;;;12.15;9.23;;;11.20;99.90;;;;;;5027836;28;20479;-63
2022/06/01 00:51:08;;;;;;;11.32;9.77;;;11.10;99.90;;;;;;5035330;28;20029;-63
2022/06/01 00:53:39;;;;;;;10.00;8.30;;;11.20;99.90;;;;;;5035515;28;20033;-64
2022/06/01 00:56:10;;;;;;;10.88;8.13;;;11.10;99.90;;;;;;5009075;28;20081;-63
2022/06/01 00:58:39;;;;;;;10.70;8.00;;;10.90;99.90;;;;;;5032772;28;20049;-64
2022/06/01 01:01:08;;;;;;;9.98;8.23;;;11.00;99.90;;;;;;5054276;28;20457;-64
2022/06/01 01:03:37;;;;;;;13.57;8.52;;;11.20;99.90;;;;;;5036958;28;20259;-63
2022/06/01 01:06:10;;;;;;;14.68;10.02;;;11.10;99.90;;;;;;5036550;28;20048;-63
2022/06/01 01:08:36;;;;;;;11.38;10.02;;;;;;;;;;5020540;28;20116;-63
2022/06/01 01:11:02;;;;;;;12.27;10.50;;;;;;;;;;5054582;28;20448;-63
2022/06/01 01:13:28;;;;;;;13.98;10.43;;;;;;;;;;5054021;28;20044;-63
2022/06/01 01:15:55;;;;;;;13.15;9.73;;;;;;;;;;5036598;28;20556;-64
2022/06/01 01:18:29;;;;;;;13.50;10.73;;;11.10;99.90;;;;;;5018253;28;20037;-63
2022/06/01 01:21:26;;;;;;;12.65;11.35;;;11.20;99.90;;;;;;5016771;28;20042;-63
2022/06/01 01:24:13;;;;;;;14.07;10.63;;;11.20;99.90;;;;;;5042704;28;20060;-63
2022/06/01 01:26:46;;;;;;;14.32;12.80;;;11.20;99.90;;;;;;5037656;28;20116;-63
2022/06/01 01:29:13;;;;;;;19.63;11.85;;;11.10;99.90;;;;;;5000533;28;20041;-64
2022/06/01 01:31:40;;;;;;;13.85;12.48;;;11.10;99.90;;;;;;5046806;28;20036;-63
2022/06/01 01:34:06;;;;;;;16.67;12.63;;;10.90;99.90;;;;;;5054168;28;20037;-64
2022/06/01 01:36:41;;;;;;;14.93;12.50;;;11.10;99.90;;;;;;5036013;28;20528;-63
2022/06/01 01:39:10;;;;;;;16.35;12.80;;;11.10;99.90;;;;;;5036806;28;20060;-63
2022/06/01 01:41:46;;;;;;;13.98;12.43;;;11.00;99.90;;;;;;5019898;28;20055;-63
2022/06/01 01:44:30;;;;;;;15.38;12.32;;;11.00;99.90;;;;;;5034336;28;20125;-64
2022/06/01 01:46:58;;;;;;;14.77;12.18;;;10.90;99.90;;;;;;5049801;28;20151;-64
2022/06/01 01:49:30;;;;;;;14.65;12.80;;;11.00;99.90;;;;;;5036115;28;20112;-63
2022/06/01 01:52:00;;;;;;;15.35;11.98;;;10.90;99.90;;;;;;5006097;28;20039;-63
2022/06/01 01:54:49;;;;;;;14.75;12.50;;;11.00;99.90;;;;;;5036201;28;20029;-64
2022/06/01 01:57:15;;;;;;;16.08;13.30;;;;;;;;;;5002924;28;20095;-63
2022/06/01 02:00:04;;;;;;;15.88;12.75;;;11.00;99.90;;;;;;5024422;28;20502;-64
2022/06/01 02:02:46;;;;;;;16.25;12.30;;;11.10;99.90;;;;;;5035806;28;20044;-64
2022/06/01 02:08:36;;;;;;;;;;;11.10;99.90;;;;;;5034390;28;20037;-63
2022/06/01 02:14:44;;;;;;;16.88;14.10;;;11.00;99.90;;;;;;5047068;28;20048;-63
2022/06/01 02:17:19;;;;;;;15.85;13.52;;;11.00;99.90;;;;;;4964515;28;20074;-63
2022/06/01 02:20:10;;;;;;;16.10;14.10;;;10.90;99.90;;;;;;5012712;28;20099;-63
2022/06/01 02:22:36;;;;;;;19.33;14.50;;;;;;;;;;5022105;28;20396;-62
2022/06/01 02:25:02;;;;;;;16.77;14.70;;;10.80;99.90;;;;;;5037913;28;20096;-63
2022/06/01 02:27:29;;;;;;;22.35;14.90;;;11.00;99.90;;;;;;5034953;28;20049;-63
2022/06/01 02:29:59;;;;;;;19.60;14.98;;;10.80;99.90;;;;;;5014381;28;20030;-63
2022/06/01 02:32:28;;;;;;;18.23;14.75;;;;;;;;;;5015254;28;20045;-63
2022/06/01 02:34:56;;;;;;;19.00;15.95;;;10.90;99.90;;;;;;5050233;28;20495;-63
2022/06/01 02:37:22;;;;;;;19.17;17.05;;;11.10;99.90;;;;;;5002298;28;20052;-65
2022/06/01 02:39:52;;;;;;;17.30;15.50;;;11.00;99.90;;;;;;5052845;28;20407;-63
2022/06/01 02:42:28;;;;;;;20.02;17.92;;;11.10;99.90;;;;;;5019097;28;20080;-63
2022/06/01 02:44:59;;;;;;;20.67;17.52;;;11.20;99.90;;;;;;5033355;28;20037;-63
2022/06/01 02:47:33;;;;;;;20.45;16.15;;;11.00;99.90;;;;;;5048952;28;20055;-63
2022/06/01 02:50:00;;;;;;;23.20;16.65;;;11.10;99.90;;;;;;5018057;28;20053;-63
2022/06/01 02:52:27;;;;;;;18.75;15.93;;;11.00;99.90;;;;;;5015445;28;20033;-64
2022/06/01 02:54:53;;;;;;;16.17;14.35;;;11.20;99.90;;;;;;5015008;28;20053;-63
2022/06/01 02:57:19;;;;;;;17.38;15.55;;;11.10;99.90;;;;;;5032686;28;20037;-62
2022/06/01 02:59:46;;;;;;;16.67;14.00;;;;;;;;;;5010536;28;20048;-63
2022/06/01 03:02:11;;;;;;;16.98;14.20;;;11.00;99.90;;;;;;5052327;28;20509;-63
2022/06/01 03:04:38;;;;;;;15.65;13.50;;;11.10;99.90;;;;;;5034742;28;20040;-63
2022/06/01 03:07:05;;;;;;;16.70;12.70;;;11.20;99.90;;;;;;5018223;28;20045;-63
2022/06/01 03:09:31;;;;;;;14.57;12.93;;;11.10;99.90;;;;;;5016829;28;20069;-64
2022/06/01 03:11:56;;;;;;;15.48;13.77;;;10.90;99.90;;;;;;5042854;28;20079;-64
2022/06/01 03:14:22;;;;;;;17.70;13.43;;;10.90;99.90;;;;;;5035989;28;20037;-63
2022/06/01 03:16:48;;;;;;;16.15;14.38;;;11.00;99.90;;;;;;5014892;28;20526;-64
2022/06/01 03:19:14;;;;;;;15.27;13.68;;;11.10;99.90;;;;;;5028849;28;20088;-64
2022/06/01 03:21:40;;;;;;;15.07;13.18;;;10.90;99.90;;;;;;5014758;28;20047;-63
2022/06/01 03:24:08;;;;;;;15.00;13.10;;;11.00;99.90;;;;;;5044886;28;20469;-63
2022/06/01 03:26:34;;;;;;;13.45;12.05;;;;;;;;;;5047383;28;20081;-64
2022/06/01 03:29:00;;;;;;;14.95;12.43;;;;;;;;;;5024156;28;20090;-63
2022/06/01 03:31:26;;;;;;;17.88;13.02;;;;;;;;;;5035003;28;20052;-64
2022/06/01 03:33:52;;;;;;;14.23;12.73;;;10.80;99.90;;;;;;5023100;28;20503;-64
2022/06/01 03:36:19;;;;;;;14.35;12.68;;;;;;;;;;5036715;28;20091;-63
2022/06/01 03:38:45;;;;;;;13.98;12.45;;;10.70;99.90;;;;;;4998083;28;20072;-63
2022/06/01 03:41:11;;;;;;;15.15;12.48;;;;;;;;;;5044963;28;20072;-63
2022/06/01 03:46:22;;;;;;;15.88;13.77;;;;;;;;;;5043969;28;20049;-63
2022/06/01 03:48:48;;;;;;;15.38;13.13;;;10.50;99.90;;;;;;5046043;28;20128;-64
2022/06/01 03:51:14;;;;;;;16.33;13.88;;;;;;;;;;5014044;28;20128;-63
2022/06/01 03:53:40;;;;;;;14.30;12.40;;;;;;;;;;5031576;28;20044;-63
2022/06/01 03:56:08;;;;;;;18.40;13.02;;;10.60;99.90;;;;;;5013439;28;20652;-63
2022/06/01 03:58:35;;;;;;;14.88;12.55;;;10.60;99.90;;;;;;5031849;28;20045;-62
2022/06/01 04:01:02;;;;;;;16.70;13.35;;;;;;;;;;5031672;28;20037;-63
2022/06/01 04:03:27;;;;;;;15.88;12.68;;;10.60;99.90;;;;;;5014121;28;20470;-63
2022/06/01 04:05:54;;;;;;;16.30;13.68;;;10.60;99.90;;;;;;5013783;28;20129;-63
2022/06/01 04:08:20;;;;;;;17.60;13.60;;;10.50;99.90;;;;;;5051650;28;20076;-63
2022/06/01 04:10:46;;;;;;;20.58;16.27;;;;;;;;;;5019282;28;20076;-63
2022/06/01 04:13:40;;;;;;;19.13;15.85;;;10.60;99.90;;;;;;5034584;28;20043;-63
2022/06/01 04:16:05;;;;;;;22.23;17.05;;;10.60;99.90;;;;;;5051225;28;20047;-63
2022/06/01 04:18:31;;;;;;;21.05;16.80;;;;;;;;;;5033859;28;20123;-63
2022/06/01 04:20:57;;;;;;;24.20;18.25;;;10.80;99.90;;;;;;5033070;28;20048;-64
2022/06/01 04:23:22;;;;;;;21.80;17.77;;;10.70;99.90;;;;;;5030760;28;20438;-64
2022/06/01 04:25:48;;;;;;;23.98;18.42;;;10.60;99.90;;;;;;5033770;28;20041;-64
2022/06/01 04:28:14;;;;;;;25.02;17.90;;;10.50;99.90;;;;;;5033391;28;20041;-64
2022/06/01 04:30:40;;;;;;;23.83;19.40;;;10.50;99.90;;;;;;5033992;28;20080;-65
2022/06/01 04:33:06;;;;;;;26.88;19.92;;;10.60;99.90;;;;;;5051396;28;20557;-65
2022/06/01 04:35:32;;;;;;;22.40;19.33;;;10.60;99.90;;;;;;5051507;28;20120;-64
2022/06/01 04:38:12;;;;;;;23.83;19.38;;;10.50;99.90;;;;;;5050887;28;20124;-65
2022/06/01 04:40:40;;;;;;;24.58;18.55;;;10.50;99.90;;;;;;5015393;28;20049;-64
2022/06/01 04:43:06;;;;;;;24.23;20.05;;;;;;;;;;5042517;28;20087;-64
2022/06/01 04:45:32;;;;;;;24.65;19.50;;;;;;;;;;5045597;28;20041;-65
2022/06/01 04:47:57;;;;;;;23.88;19.73;;;10.60;99.90;;;;;;5046087;28;20044;-64
2022/06/01 04:50:23;;;;;;;27.83;20.33;;;;;;;;;;5014773;28;20033;-64
2022/06/01 04:52:49;;;;;;;26.60;21.08;;;;;;;;;;5032243;28;20069;-64
2022/06/01 04:55:15;;;;;;;29.60;20.00;;;;;;;;;;5001571;28;20080;-65
2022/06/01 04:57:41;;;;;;;23.38;18.67;;;;;;;;;;5014671;28;20045;-63
2022/06/01 05:00:08;;;;;;;23.67;20.23;;;11.10;99.90;;;;;;5031566;28;20135;-64
2022/06/01 05:02:34;;;;;;;24.35;19.58;;;;;;;;;;5012013;28;20073;-64
2022/06/01 05:05:00;;;;;;;23.35;19.90;;;;;;;;;;5038382;28;20590;-64
2022/06/01 05:07:26;;;;;;;22.52;20.05;;;11.30;99.90;;;;;;5049726;28;20051;-64
2022/06/01 05:09:52;;;;;;;25.92;21.10;;;;;;;;;;5049594;28;20067;-64
2022/06/01 05:12:18;;;;;;;27.45;22.35;;;11.20;99.90;;;;;;5047781;28;20080;-63
2022/06/01 05:14:44;;;;;;;27.50;21.55;;;;;;;;;;5027776;28;20199;-63
2022/06/01 05:17:09;;;;;;;29.35;21.67;;;11.20;99.90;;;;;;5037147;28;20098;-64
2022/06/01 05:19:35;;;;;;;28.42;23.35;;;;;;;;;;5043705;28;20494;-64
2022/06/01 05:22:01;;;;;;;27.88;22.98;;;;;;;;;;5040629;28;20048;-66
2022/06/01 05:24:27;;;;;;;28.50;23.65;;;11.30;99.90;;;;;;5046817;28;20500;-65
2022/06/01 05:26:53;;;;;;;27.73;23.15;;;;;;;;;;5028676;28;20123;-65
2022/06/01 05:29:18;;;;;;;26.83;22.42;;;11.60;99.90;;;;;;5045264;28;20568;-65
2022/06/01 05:31:44;;;;;;;23.50;20.15;;;12.20;99.90;;;;;;5022208;28;20049;-65
2022/06/01 05:34:10;;;;;;;21.40;19.10;;;13.00;99.90;;;;;;5028155;28;20064;-65
2022/06/01 05:36:36;;;;;;;22.65;18.58;;;13.40;99.90;;;;;;5027758;28;20577;-67
2022/06/01 05:39:03;;;;;;;22.80;17.98;;;14.60;99.90;;;;;;5021814;28;20501;-64
2022/06/01 05:41:29;;;;;;;23.65;18.60;;;;;;;;;;5045041;28;20052;-66
2022/06/01 05:43:55;;;;;;;27.20;19.35;;;;;;;;;;5043866;28;20449;-65
2022/06/01 05:46:22;;;;;;;23.08;19.60;;;12.80;99.90;;;;;;5033988;28;20487;-64
2022/06/01 05:48:48;;;;;;;22.70;19.50;;;;;;;;;;5017472;28;20056;-64
2022/06/01 05:51:14;;;;;;;23.60;18.38;;;12.50;99.90;;;;;;5026685;28;20059;-64
2022/06/01 05:53:40;;;;;;;23.10;19.23;;;;;;;;;;5027224;28;20040;-65
2022/06/01 05:56:06;;;;;;;25.58;18.58;;;;;;;;;;5046103;28;20053;-64
2022/06/01 05:58:32;;;;;;;24.80;18.63;;;12.50;99.90;;;;;;5028552;28;20052;-64
2022/06/01 06:01:05;;;;;;;21.55;18.75;;;12.50;99.90;;;;;;5031057;28;20044;-66
2022/06/01 06:03:31;;;;;;;24.27;18.25;;;;;;;;;;5026931;28;20040;-64
2022/06/01 06:06:15;;;;;;;22.35;18.35;;;;;;;;;;5036018;28;20041;-65
2022/06/01 06:08:45;;;;;;;24.00;19.15;;;12.40;99.90;;;;;;5017798;28;20049;-65
2022/06/01 06:11:12;;;;;;;21.75;18.13;;;13.90;99.90;;;;;;5035924;28;20052;-65
2022/06/01 06:13:38;;;;;;;23.30;19.63;;;;;;;;;;5035836;28;20510;-65
2022/06/01 06:16:05;;;;;;;20.88;17.92;;;12.30;99.90;;;;;;5017496;28;20094;-65
2022/06/01 06:18:30;;;;;;;20.40;16.73;;;12.20;99.90;;;;;;5035367;28;20056;-64
2022/06/01 06:20:56;;;;;;;20.15;17.67;;;12.20;99.90;;;;;;5035272;28;20441;-64
2022/06/01 06:23:22;;;;;;;22.45;18.38;;;;;;;;;;5001567;28;20636;-65
2022/06/01 06:25:48;;;;;;;20.73;16.90;;;14.10;99.90;;;;;;5034584;28;20084;-65
2022/06/01 06:28:14;;;;;;;21.42;18.40;;;12.40;99.90;;;;;;5033403;28;20041;-65
2022/06/01 06:30:41;;;;;;;23.38;17.05;;;12.50;99.90;;;;;;5017663;28;20417;-65
2022/06/01 06:33:07;;;;;;;21.70;16.35;;;;;;;;;;5017871;28;20045;-64
2022/06/01 06:35:33;;;;;;;20.92;16.70;;;12.40;99.90;;;;;;5036709;28;20041;-64
2022/06/01 06:37:59;;;;;;;21.63;18.17;;;;;;;;;;5035961;28;20041;-65
2022/06/01 06:40:26;;;;;;;20.17;17.23;;;12.60;99.90;;;;;;5035259;28;20972;-64
2022/06/01 06:42:53;;;;;;;22.83;17.20;;;12.40;99.90;;;;;;5016552;28;20569;-65
2022/06/01 06:45:19;;;;;;;21.48;17.15;;;;;;;;;;5034620;28;20897;-65
2022/06/01 06:47:45;;;;;;;20.42;17.60;;;;;;;;;;5017682;28;20049;-64
2022/06/01 06:50:12;;;;;;;20.52;16.73;;;12.60;99.90;;;;;;5034956;28;20506;-64
2022/06/01 06:52:39;;;;;;;20.58;15.95;;;;;;;;;;5017237;28;20245;-62
2022/06/01 06:55:06;;;;;;;18.77;15.20;;;;;;;;;;5033496;28;20076;-65
2022/06/01 06:57:32;;;;;;;19.50;15.82;;;12.60;99.90;;;;;;5033119;28;20075;-64
2022/06/01 06:59:58;;;;;;;21.30;15.13;;;12.60;99.90;;;;;;5014298;28;20131;-64
2022/06/01 07:02:24;;;;;;;20.35;14.13;;;;;;;;;;5034775;28;20080;-65
2022/06/01 07:04:50;;;;;;;17.60;14.25;;;;;;;;;;5017821;28;20697;-64
2022/06/01 07:07:16;;;;;;;16.80;12.60;;;12.60;99.90;;;;;;5018185;28;21086;-65
2022/06/01 07:09:42;;;;;;;11.85;9.77;;;;;;;;;;5035322;28;20124;-65
2022/06/01 07:12:10;;;;;;;11.35;10.15;;;12.50;99.90;;;;;;5034213;28;20693;-64
2022/06/01 07:14:36;;;;;;;13.43;9.40;;;;;;;;;;5014221;28;20049;-65
2022/06/01 07:17:02;;;;;;;9.38;8.30;;;12.50;99.90;;;;;;5033048;28;20828;-65
2022/06/01 07:19:28;;;;;;;9.98;8.23;;;12.50;99.90;;;;;;5033137;28;20139;-65
2022/06/01 07:21:54;;;;;;;11.10;7.65;;;;;;;;;;5015137;28;20122;-65
2022/06/01 07:24:21;;;;;;;8.50;6.72;;;12.60;99.90;;;;;;5014657;28;20494;-64
2022/06/01 07:26:47;;;;;;;8.20;6.47;;;12.70;99.90;;;;;;5033584;28;20055;-65
2022/06/01 07:29:16;;;;;;;7.00;5.57;;;12.70;99.90;;;;;;5016127;28;20566;-65
2022/06/01 07:31:42;;;;;;;5.60;5.03;;;12.70;99.90;;;;;;5015339;28;20036;-65
2022/06/01 07:34:08;;;;;;;7.18;6.40;;;12.80;99.90;;;;;;5033726;28;20530;-65
2022/06/01 07:36:37;;;;;;;7.03;6.18;;;;;;;;;;5032704;28;20052;-65
2022/06/01 07:44:49;;;;;;;;;;;13.20;99.90;;;;;;5009257;28;20061;-64
2022/06/01 07:47:15;;;;;;;3.20;2.90;;;13.10;99.90;;;;;;5009422;28;20002;-64
2022/06/01 07:49:41;;;;;;;4.50;3.35;;;13.20;99.90;;;;;;5025511;28;20037;-64
2022/06/01 07:52:08;;;;;;;2.90;2.60;;;13.30;99.90;;;;;;5009190;28;20052;-64
2022/06/01 07:54:38;;;;;;;3.90;2.13;;;13.20;99.90;;;;;;5026664;28;20616;-64
2022/06/01 07:57:05;;;;;;;3.22;1.40;;;13.50;99.90;;;;;;5009706;28;20048;-64
2022/06/01 07:59:31;;;;;;;1.60;1.30;;;;;;;;;;5026205;28;20048;-63
2022/06/01 08:01:56;;;;;;;1.92;1.30;;;13.50;99.90;;;;;;5017464;28;20846;-64
2022/06/01 08:04:23;;;;;;;1.60;1.35;;;;;;;;;;5006935;28;20115;-64
2022/06/01 08:06:49;;;;;;;1.50;1.30;;;;;;;;;;5026454;28;20123;-67
2022/06/01 08:09:15;;;;;;;1.63;1.45;;;;;;;;;;5007046;28;20510;-67
2022/06/01 08:14:26;;;;;;;4.55;1.85;;;;;;;;;;5007307;28;20079;-65
2022/06/01 08:16:52;;;;;;;1.63;1.52;;;;;;;;;;5008420;28;20792;-65
2022/06/01 08:19:17;;;;;;;1.85;1.30;;;14.00;99.90;;;;;;5026171;28;20048;-64
2022/06/01 08:21:44;;;;;;;1.40;1.30;;;14.10;99.90;;;;;;5025477;28;20047;-65
2022/06/01 08:24:11;;;;;;;1.40;1.17;;;14.10;99.90;;;;;;5027369;28;20163;-66
2022/06/01 08:26:37;;;;;;;1.30;1.20;;;;;;;;;;5027788;28;20495;-65
2022/06/01 08:29:04;;;;;;;2.20;2.00;;;14.30;99.90;;;;;;5027930;28;20040;-66
2022/06/01 08:31:34;;;;;;;2.50;1.55;;;14.40;99.90;;;;;;5027517;28;20467;-65
2022/06/01 08:34:01;;;;;;;1.52;1.17;;;14.50;99.90;;;;;;5026889;28;20045;-67
2022/06/01 08:36:27;;;;;;;1.38;1.27;;;;;;;;;;5027936;28;20053;-65
2022/06/01 08:38:54;;;;;;;1.60;1.30;;;;;;;;;;5030050;28;20041;-65
2022/06/01 08:41:22;;;;;;;1.92;1.50;;;14.70;99.90;;;;;;5029459;28;20173;-65
2022/06/01 08:43:53;;;;;;;1.67;0.93;;;14.50;99.90;;;;;;5012916;28;20036;-65
2022/06/01 08:46:21;;;;;;;1.58;1.48;;;14.40;99.90;;;;;;5012083;28;20776;-65
2022/06/01 08:48:50;;;;;;;2.17;1.30;;;14.50;99.90;;;;;;5010301;28;20056;-64
2022/06/01 08:51:22;;;;;;;3.15;1.50;;;14.60;99.90;;;;;;5028058;28;20060;-65
2022/06/01 08:53:48;;;;;;;2.05;1.85;;;14.70;99.90;;;;;;4996162;28;20045;-65
2022/06/01 08:56:25;;;;;;;2.28;1.90;;;14.70;99.90;;;;;;5030598;28;20076;-64
2022/06/01 08:59:14;;;;;;;3.50;2.05;;;15.00;99.90;;;;;;5029226;28;20865;-64
2022/06/01 09:01:59;;;;;;;2.30;2.10;;;14.80;99.90;;;;;;5029165;28;20139;-64
2022/06/01 09:04:55;;;;;;;2.33;2.10;;;15.00;99.90;;;;;;5012025;28;20096;-63
2022/06/01 09:07:21;;;;;;;2.88;2.25;;;;;;;;;;5012704;28;20049;-63
2022/06/01 09:10:09;;;;;;;2.80;2.17;;;15.20;99.90;;;;;;5012878;28;20075;-64
2022/06/01 09:12:35;;;;;;;2.33;2.03;;;15.30;99.90;;;;;;5010589;28;20052;-65
2022/06/01 09:15:27;;;;;;;2.95;2.03;;;15.40;99.90;;;;;;5029067;28;20098;-62
2022/06/01 09:17:54;;;;;;;3.28;2.58;;;15.60;99.90;;;;;;5030445;28;20064;-64
2022/06/01 09:23:15;;;;;;;3.45;2.22;;;15.80;99.90;;;;;;5028267;28;20048;-64
2022/06/01 09:25:52;;;;;;;4.82;3.20;;;15.90;99.90;;;;;;4996503;28;20568;-64
2022/06/01 09:28:22;;;;;;;3.20;2.20;;;15.90;99.90;;;;;;5010709;28;20051;-64
2022/06/01 09:31:00;;;;;;;3.72;2.40;;;16.10;99.90;;;;;;5028876;28;20695;-64
2022/06/01 09:33:33;;;;;;;3.45;2.45;;;16.20;99.90;;;;;;5010752;28;20045;-63
2022/06/01 09:35:58;;;;;;;2.20;2.00;;;16.30;99.90;;;;;;5026853;28;20037;-65
2022/06/01 09:38:46;;;;;;;2.15;1.95;;;16.40;99.90;;;;;;5029351;28;20521;-65
2022/06/01 09:41:25;;;;;;;2.20;2.00;;;16.60;99.90;;;;;;5029155;28;20126;-65
2022/06/01 09:43:56;;;;;;;3.17;2.22;;;16.70;99.90;;;;;;5027055;28;20135;-64
2022/06/01 09:46:34;;;;;;;5.38;2.10;;;18.20;99.90;;;;;;5010970;28;20128;-64
2022/06/01 09:49:29;;;;;;;3.97;2.50;;;18.20;99.90;;;;;;5027974;28;20510;-64
2022/06/01 09:52:00;;;;;;;2.95;2.65;;;16.60;99.90;;;;;;4999169;28;20100;-64
2022/06/01 09:54:34;;;;;;;4.85;2.40;;;16.90;99.90;;;;;;5009550;28;21588;-64
2022/06/01 09:57:32;;;;;;;2.90;2.15;;;17.90;99.90;;;;;;5010960;28;20051;-64
2022/06/01 10:08:29;;;;;;;3.83;1.27;;;16.50;99.90;;;;;;5012825;28;20040;-67
2022/06/01 10:11:02;;;;;;;1.60;1.15;;;16.50;99.90;;;;;;5032192;28;20414;-64
2022/06/01 10:13:38;;;;;;;2.03;1.30;;;16.30;99.90;;;;;;5033098;28;20095;-67
2022/06/01 10:16:42;;;;;;;2.42;1.30;;;16.40;99.90;;;;;;5014353;28;20136;-66
2022/06/01 10:19:14;;;;;;;1.95;0.93;;;16.50;99.90;;;;;;5032498;28;20509;-65
2022/06/01 10:22:00;;;;;;;2.35;1.65;;;16.40;99.90;;;;;;5034362;28;20123;-67
2022/06/01 10:24:54;;;;;;;2.92;1.08;;;16.30;99.90;;;;;;5031384;28;20415;-65
2022/06/01 10:27:24;;;;;;;3.22;0.98;;;16.10;99.90;;;;;;5008273;28;20114;-64
2022/06/01 10:30:02;;;;;;;4.47;1.23;;;16.00;99.90;;;;;;5032505;28;20578;-64
2022/06/01 10:32:40;;;;;;;1.60;0.90;;;16.00;99.90;;;;;;5032510;28;20049;-64
2022/06/01 10:35:15;;;;;;;4.93;1.15;;;15.80;99.90;;;;;;5013569;28;20052;-63
2022/06/01 10:37:45;;;;;;;2.05;1.77;;;15.80;99.90;;;;;;5014191;28;20049;-65
2022/06/01 10:40:19;;;;;;;2.80;0.80;;;15.80;99.90;;;;;;5029749;28;20130;-66
2022/06/01 10:43:18;;;;;;;1.02;0.70;;;15.80;99.90;;;;;;5032229;28;20132;-65
2022/06/01 10:46:30;;;;;;;1.13;0.80;;;15.90;99.90;;;;;;5009755;28;20167;-64
2022/06/01 10:49:27;;;;;;;0.90;0.73;;;16.00;99.90;;;;;;4999514;28;20195;-65
2022/06/01 10:52:14;;;;;;;1.73;1.30;;;16.00;99.90;;;;;;5007929;28;20049;-65
2022/06/01 10:55:03;;;;;;;1.98;1.00;;;15.90;99.90;;;;;;5027212;28;20126;-65
2022/06/01 10:57:29;;;;;;;2.65;1.30;;;;;;;;;;5027262;28;20139;-66
2022/06/01 10:59:54;;;;;;;0.57;0.50;;;15.70;99.90;;;;;;5028533;28;20768;-64
2022/06/01 11:02:39;;;;;;;1.23;0.50;;;15.60;99.90;;;;;;5009774;28;20105;-64
2022/06/01 11:05:40;;;;;;;3.08;1.45;;;15.50;99.90;;;;;;5025500;28;20049;-65
2022/06/01 11:08:34;;;;;;;1.20;0.70;;;15.40;99.90;;;;;;5028759;28;20817;-65
2022/06/01 11:11:21;;;;;;;0.82;0.60;;;15.40;99.90;;;;;;4996365;28;20052;-65
2022/06/01 11:14:18;;;;;;;0.98;0.77;;;15.30;99.90;;;;;;5009977;28;20057;-65
2022/06/01 11:16:55;;;;;;;1.95;0.80;;;15.20;99.90;;;;;;5026737;28;20056;-63
2022/06/01 11:19:42;;;;;;;1.08;0.80;;;15.30;99.90;;;;;;5009771;28;20056;-66
2022/06/01 11:22:17;;;;;;;1.77;1.10;;;15.30;99.90;;;;;;5028015;28;20422;-64
2022/06/01 11:25:04;;;;;;;1.70;1.38;;;15.40;99.90;;;;;;5025797;28;20797;-65
2022/06/01 11:28:22;;;;;;;2.92;1.67;;;15.30;99.90;;;;;;5027408;28;20135;-63
2022/06/01 11:30:57;;;;;;;2.53;1.33;;;15.40;99.90;;;;;;4931964;28;20086;-64
2022/06/01 11:33:43;;;;;;;1.58;1.40;;;15.60;99.90;;;;;;4939546;28;20103;-64
2022/06/01 11:36:31;;;;;;;4.00;1.75;;;15.40;99.90;;;;;;4986541;28;20144;-64
2022/06/01 11:39:28;;;;;;;2.13;1.45;;;15.20;99.90;;;;;;5010142;28;20080;-64
2022/06/01 11:42:03;;;;;;;1.88;1.25;;;15.40;99.90;;;;;;5009539;28;20114;-65
2022/06/01 11:44:36;;;;;;;1.85;1.20;;;15.30;99.90;;;;;;5009908;28;20049;-64
2022/06/01 11:47:09;;;;;;;2.55;1.60;;;15.40;99.90;;;;;;5025000;28;20561;-64
2022/06/01 11:49:35;;;;;;;1.52;1.40;;;;;;;;;;5025742;28;20114;-64
2022/06/01 11:52:26;;;;;;;1.67;1.48;;;15.50;99.90;;;;;;5010068;28;20399;-64
2022/06/01 11:55:25;;;;;;;1.83;1.48;;;15.80;99.90;;;;;;5026753;28;20059;-64
2022/06/01 11:58:07;;;;;;;2.60;1.50;;;15.90;99.90;;;;;;5032056;28;20586;-64
2022/06/01 12:00:39;;;;;;;2.90;1.83;;;16.00;99.90;;;;;;5013082;28;20636;-64
2022/06/01 12:03:17;;;;;;;3.30;2.20;;;16.10;99.90;;;;;;5016764;28;20934;-64
2022/06/01 12:06:05;;;;;;;2.70;1.80;;;16.00;99.90;;;;;;5040340;28;20606;-64
2022/06/01 12:08:46;;;;;;;2.40;1.83;;;15.90;99.90;;;;;;5010704;28;20052;-61
2022/06/01 12:11:45;;;;;;;2.95;2.30;;;15.80;99.90;;;;;;5010382;28;20048;-64
2022/06/01 12:14:32;;;;;;;4.65;1.83;;;15.70;99.90;;;;;;5009536;28;20602;-64
2022/06/01 12:17:15;;;;;;;3.20;1.73;;;15.50;99.90;;;;;;5027889;28;20547;-63
2022/06/01 12:19:45;;;;;;;2.38;1.60;;;15.40;99.90;;;;;;5027442;28;20049;-65
2022/06/01 12:28:31;;;;;;;1.65;0.65;;;14.80;99.90;;;;;;5010713;28;20057;-64
2022/06/01 12:31:18;;;;;;;2.05;0.60;;;14.80;99.90;;;;;;4945235;28;20050;-64
2022/06/01 12:34:00;;;;;;;1.25;0.80;;;14.60;99.90;;;;;;4948072;28;20054;-64
2022/06/01 12:36:30;;;;;;;5.18;1.00;;;14.50;99.90;;;;;;4995831;28;20071;-64
2022/06/01 12:38:56;;;;;;;2.53;0.95;;;;;;;;;;5013424;28;20076;-65
2022/06/01 12:41:27;;;;;;;2.10;1.10;;;14.60;99.90;;;;;;5013986;28;20063;-64
2022/06/01 12:43:55;;;;;;;2.08;1.00;;;14.70;99.90;;;;;;5031698;28;20068;-64
2022/06/01 12:46:45;;;;;;;1.65;1.00;;;14.60;99.90;;;;;;5030865;28;20136;-62
2022/06/01 12:49:19;;;;;;;4.88;1.00;;;14.60;99.90;;;;;;5029929;28;20052;-65
2022/06/01 12:51:45;;;;;;;1.60;1.30;;;;;;;;;;5012177;28;20056;-66
2022/06/01 12:54:11;;;;;;;4.70;1.50;;;;;;;;;;5012531;28;20049;-65
2022/06/01 12:56:47;;;;;;;1.90;1.02;;;14.20;99.90;;;;;;5012112;28;20059;-65
2022/06/01 12:59:14;;;;;;;1.92;1.50;;;14.00;99.90;;;;;;5030202;28;20257;-65
2022/06/01 13:01:40;;;;;;;4.25;2.00;;;;;;;;;;5008655;28;20052;-64
2022/06/01 13:04:06;;;;;;;2.90;1.70;;;;;;;;;;5025598;28;20498;-63
2022/06/01 13:06:39;;;;;;;3.47;1.60;;;13.80;99.90;;;;;;5026594;28;20040;-63
2022/06/01 13:09:11;;;;;;;3.28;1.65;;;14.10;99.90;;;;;;5023492;28;20053;-62
2022/06/01 13:11:37;;;;;;;2.80;1.48;;;;;;;;;;5025915;28;20037;-62
2022/06/01 13:14:06;;;;;;;1.80;1.58;;;14.20;99.90;;;;;;5023320;28;20083;-62
2022/06/01 13:16:46;;;;;;;1.92;1.33;;;14.10;99.90;;;;;;5018945;28;20084;-62
2022/06/01 13:19:22;;;;;;;1.98;1.20;;;14.30;99.90;;;;;;5004184;28;20383;-61
2022/06/01 13:22:11;;;;;;;2.63;1.40;;;14.30;99.90;;;;;;5020982;28;20638;-66
2022/06/01 13:24:53;;;;;;;3.08;1.20;;;14.70;99.90;;;;;;5018104;28;20073;-65
2022/06/01 13:27:20;;;;;;;2.17;1.23;;;14.60;99.90;;;;;;5003239;28;20057;-64
2022/06/01 13:29:48;;;;;;;1.65;1.00;;;14.60;99.90;;;;;;5017303;28;20045;-63
2022/06/01 13:32:17;;;;;;;2.65;1.08;;;14.80;99.90;;;;;;5004474;28;20045;-65
2022/06/01 13:34:54;;;;;;;1.65;1.17;;;14.60;99.90;;;;;;5023367;28;20946;-64
2022/06/01 13:37:20;;;;;;;3.00;1.00;;;;;;;;;;5003121;28;20753;-64
2022/06/01 13:40:09;;;;;;;2.03;1.30;;;14.70;99.90;;;;;;5003473;28;20094;-64
2022/06/01 13:42:35;;;;;;;1.67;1.13;;;;;;;;;;5021908;28;20040;-64
2022/06/01 13:45:03;;;;;;;1.73;1.25;;;14.50;99.90;;;;;;5021399;28;20049;-64
2022/06/01 13:47:54;;;;;;;2.28;1.40;;;14.30;99.90;;;;;;5000754;28;20049;-64
2022/06/01 13:50:28;;;;;;;2.80;1.63;;;14.20;99.90;;;;;;5018120;28;20123;-64
2022/06/01 13:52:54;;;;;;;1.73;1.55;;;;;;;;;;5019261;28;20044;-62
2022/06/01 13:55:28;;;;;;;2.55;1.73;;;14.30;99.90;;;;;;4998495;28;20060;-62
2022/06/01 13:58:09;;;;;;;2.33;1.70;;;14.30;99.90;;;;;;4999557;28;20053;-65
2022/06/01 14:00:41;;;;;;;2.78;2.15;;;14.40;99.90;;;;;;5000016;28;20583;-62
2022/06/01 14:03:07;;;;;;;2.83;2.20;;;;;;;;;;5000389;28;20416;-66